createdAt,value
2018-11-21T00:00:16.103Z,40.00
2018-11-21T00:01:16.115Z,39.30
2018-11-21T00:02:16.121Z,37.80
2018-11-21T00:03:16.132Z,40.10
2018-11-21T00:04:16.136Z,36.40
2018-11-21T00:05:16.142Z,38.30
2018-11-21T00:06:16.154Z,38.10
2018-11-21T00:07:16.158Z,38.40
2018-11-21T00:08:16.190Z,39.50
2018-11-21T00:09:16.172Z,37.00
2018-11-21T00:10:16.184Z,39.10
2018-11-21T00:11:16.188Z,36.50
2018-11-21T00:12:16.199Z,37.90
2018-11-21T00:13:16.208Z,37.50
2018-11-21T00:14:16.319Z,40.20
2018-11-21T00:15:16.267Z,38.00
2018-11-21T00:16:16.294Z,42.60
2018-11-21T00:17:16.231Z,39.90
2018-11-21T00:18:16.250Z,37.60
2018-11-21T00:19:16.267Z,40.30
2018-11-21T00:20:16.253Z,40.00
2018-11-21T00:21:16.263Z,38.30
2018-11-21T00:22:16.270Z,40.20
2018-11-21T00:23:16.285Z,41.20
2018-11-21T00:24:16.291Z,39.40
2018-11-21T00:25:16.476Z,37.70
2018-11-21T00:26:16.305Z,38.40
2018-11-21T00:27:16.309Z,35.40
2018-11-21T00:28:16.388Z,39.00
2018-11-21T00:29:16.324Z,39.40
2018-11-21T00:30:16.452Z,40.20
2018-11-21T00:31:16.338Z,40.90
2018-11-21T00:32:16.348Z,38.00
2018-11-21T00:33:16.353Z,39.00
2018-11-21T00:34:16.361Z,39.10
2018-11-21T00:35:16.372Z,38.30
2018-11-21T00:36:16.376Z,39.70
2018-11-21T00:37:16.383Z,38.90
2018-11-21T00:38:16.391Z,40.00
2018-11-21T00:39:16.397Z,39.90
2018-11-21T00:40:16.410Z,38.60
2018-11-21T00:42:16.422Z,39.10
2018-11-21T00:43:16.433Z,39.70
2018-11-21T00:44:16.444Z,40.90
2018-11-21T00:45:16.449Z,40.50
2018-11-21T00:46:16.454Z,39.00
2018-11-21T00:47:16.460Z,39.40
2018-11-21T00:48:16.467Z,42.00
2018-11-21T00:49:16.481Z,39.60
2018-11-21T00:50:16.479Z,40.50
2018-11-21T00:51:16.579Z,38.80
2018-11-21T00:52:16.496Z,40.30
2018-11-21T00:53:16.512Z,39.60
2018-11-21T00:54:16.513Z,38.50
2018-11-21T00:55:16.521Z,39.60
2018-11-21T00:56:16.527Z,40.60
2018-11-21T00:57:16.535Z,41.60
2018-11-21T00:58:16.542Z,41.90
2018-11-21T00:59:16.547Z,41.00
2018-11-21T01:00:16.561Z,38.60
2018-11-21T01:01:16.565Z,40.00
2018-11-21T01:02:16.582Z,38.20
2018-11-21T01:03:16.587Z,40.60
2018-11-21T01:04:16.584Z,39.70
2018-11-21T01:05:16.595Z,38.80
2018-11-21T01:06:16.606Z,41.00
2018-11-21T01:07:16.606Z,39.90
2018-11-21T01:08:16.648Z,38.00
2018-11-21T01:09:16.626Z,38.70
2018-11-21T01:10:16.629Z,40.60
2018-11-21T01:11:16.636Z,38.50
2018-11-21T01:12:16.656Z,42.10
2018-11-21T01:13:16.659Z,39.70
2018-11-21T01:14:16.763Z,39.10
2018-11-21T01:16:16.783Z,39.80
2018-11-21T01:17:16.734Z,40.50
2018-11-21T01:18:16.843Z,41.90
2018-11-21T01:19:16.715Z,41.90
2018-11-21T01:20:16.704Z,40.20
2018-11-21T01:21:16.709Z,41.50
2018-11-21T01:22:16.745Z,40.40
2018-11-21T01:23:16.732Z,38.10
2018-11-21T01:24:16.733Z,40.00
2018-11-21T01:25:16.763Z,39.00
2018-11-21T01:26:16.758Z,40.60
2018-11-21T01:27:16.754Z,39.10
2018-11-21T01:28:16.760Z,38.90
2018-11-21T01:29:16.769Z,38.70
2018-11-21T01:30:16.778Z,40.30
2018-11-21T01:31:16.786Z,40.40
2018-11-21T01:32:16.791Z,39.90
2018-11-21T01:33:16.798Z,39.20
2018-11-21T01:34:16.806Z,39.40
2018-11-21T01:35:16.817Z,40.40
2018-11-21T01:36:16.822Z,38.20
2018-11-21T01:37:16.833Z,40.00
2018-11-21T01:38:16.834Z,39.60
2018-11-21T01:39:16.844Z,39.10
2018-11-21T01:40:16.851Z,39.80
2018-11-21T01:41:16.860Z,40.00
2018-11-21T01:42:16.865Z,38.60
2018-11-21T01:43:16.876Z,39.20
2018-11-21T01:44:16.882Z,39.60
2018-11-21T01:45:16.890Z,37.20
2018-11-21T01:47:16.925Z,40.00
2018-11-21T01:48:16.916Z,39.30
2018-11-21T01:49:16.922Z,38.50
2018-11-21T01:50:16.924Z,37.90
2018-11-21T01:51:16.930Z,40.10
2018-11-21T01:52:16.946Z,40.70
2018-11-21T01:53:16.994Z,36.70
2018-11-21T01:54:17.026Z,40.00
2018-11-21T01:55:16.960Z,39.80
2018-11-21T01:56:16.966Z,38.20
2018-11-21T01:57:16.976Z,37.90
2018-11-21T01:58:16.983Z,39.20
2018-11-21T01:59:16.990Z,38.50
2018-11-21T02:00:17.013Z,40.40
2018-11-21T02:01:17.005Z,38.10
2018-11-21T02:02:17.012Z,38.00
2018-11-21T02:03:17.169Z,36.90
2018-11-21T02:04:17.028Z,38.00
2018-11-21T02:05:17.034Z,38.00
2018-11-21T02:06:17.043Z,40.30
2018-11-21T02:07:17.047Z,38.20
2018-11-21T02:08:17.056Z,39.80
2018-11-21T02:09:17.070Z,39.70
2018-11-21T02:10:17.080Z,37.70
2018-11-21T02:11:17.078Z,36.40
2018-11-21T02:12:17.086Z,36.60
2018-11-21T02:13:17.109Z,36.50
2018-11-21T02:14:17.150Z,35.50
2018-11-21T02:15:17.143Z,38.60
2018-11-21T02:16:17.114Z,35.40
2018-11-21T02:17:17.126Z,36.60
2018-11-21T02:18:17.133Z,35.10
2018-11-21T02:19:17.138Z,36.20
2018-11-21T02:20:17.150Z,36.90
2018-11-21T02:21:17.209Z,34.70
2018-11-21T02:22:17.160Z,36.70
2018-11-21T02:23:17.169Z,36.60
2018-11-21T02:24:17.179Z,34.70
2018-11-21T02:25:17.184Z,36.80
2018-11-21T02:26:17.191Z,37.80
2018-11-21T02:27:17.196Z,34.70
2018-11-21T02:28:17.209Z,36.80
2018-11-21T02:29:17.215Z,35.50
2018-11-21T02:30:17.226Z,33.50
2018-11-21T02:31:17.225Z,35.60
2018-11-21T02:32:17.235Z,36.00
2018-11-21T02:33:17.243Z,35.60
2018-11-21T02:34:17.248Z,34.20
2018-11-21T02:35:17.256Z,34.60
2018-11-21T02:36:17.260Z,36.60
2018-11-21T02:37:17.272Z,35.50
2018-11-21T02:38:17.292Z,36.10
2018-11-21T02:39:17.290Z,36.60
2018-11-21T02:40:17.294Z,34.30
2018-11-21T02:41:17.301Z,37.30
2018-11-21T02:42:17.341Z,35.70
2018-11-21T02:43:17.319Z,35.60
2018-11-21T02:44:17.339Z,39.70
2018-11-21T02:45:17.335Z,35.70
2018-11-21T02:46:17.706Z,37.50
2018-11-21T02:47:17.345Z,34.60
2018-11-21T02:48:17.353Z,32.80
2018-11-21T02:49:17.368Z,35.50
2018-11-21T02:50:17.371Z,35.00
2018-11-21T02:51:17.379Z,35.60
2018-11-21T02:52:17.734Z,35.20
2018-11-21T02:53:17.391Z,34.80
2018-11-21T02:54:17.396Z,36.20
2018-11-21T02:56:17.511Z,35.70
2018-11-21T02:57:17.420Z,32.90
2018-11-21T02:58:17.431Z,33.80
2018-11-21T03:00:17.543Z,33.50
2018-11-21T03:01:17.453Z,35.30
2018-11-21T03:02:17.459Z,33.60
2018-11-21T03:03:17.466Z,34.70
2018-11-21T03:04:17.479Z,34.90
2018-11-21T03:05:17.483Z,33.10
2018-11-21T03:06:17.490Z,33.60
2018-11-21T03:07:17.496Z,34.30
2018-11-21T03:08:17.503Z,33.60
2018-11-21T03:09:17.512Z,34.80
2018-11-21T03:10:17.520Z,32.30
2018-11-21T03:11:17.527Z,35.40
2018-11-21T03:12:17.531Z,33.50
2018-11-21T03:13:17.546Z,34.50
2018-11-21T03:14:17.606Z,34.70
2018-11-21T03:15:17.565Z,33.60
2018-11-21T03:16:17.570Z,33.90
2018-11-21T03:17:17.567Z,35.50
2018-11-21T03:18:17.581Z,35.60
2018-11-21T03:19:17.585Z,33.20
2018-11-21T03:20:17.586Z,35.00
2018-11-21T03:21:17.595Z,34.90
2018-11-21T03:22:17.951Z,33.00
2018-11-21T03:23:17.613Z,33.40
2018-11-21T03:24:17.619Z,35.30
2018-11-21T03:25:17.630Z,36.80
2018-11-21T03:26:17.641Z,37.70
2018-11-21T03:27:17.640Z,32.50
2018-11-21T03:28:17.648Z,35.00
2018-11-21T03:29:17.661Z,36.30
2018-11-21T03:30:17.671Z,34.90
2018-11-21T03:31:17.670Z,36.20
2018-11-21T03:32:17.679Z,37.80
2018-11-21T03:33:17.686Z,34.00
2018-11-21T03:34:17.696Z,34.90
2018-11-21T03:35:17.703Z,36.00
2018-11-21T03:36:17.738Z,34.80
2018-11-21T03:37:17.717Z,34.70
2018-11-21T03:38:17.725Z,34.70
2018-11-21T03:39:17.731Z,34.40
2018-11-21T03:40:17.742Z,39.10
2018-11-21T03:41:17.746Z,37.30
2018-11-21T03:42:17.754Z,35.70
2018-11-21T03:43:17.775Z,35.80
2018-11-21T03:44:17.827Z,35.90
2018-11-21T03:45:17.784Z,35.30
2018-11-21T03:46:17.804Z,36.50
2018-11-21T03:47:17.791Z,37.60
2018-11-21T03:48:17.801Z,35.80
2018-11-21T03:49:17.807Z,34.90
2018-11-21T03:50:17.827Z,35.50
2018-11-21T03:51:17.825Z,37.60
2018-11-21T03:52:17.832Z,36.10
2018-11-21T03:53:17.839Z,34.30
2018-11-21T03:54:17.844Z,36.60
2018-11-21T03:55:17.900Z,33.80
2018-11-21T03:56:17.861Z,38.50
2018-11-21T03:57:17.867Z,35.70
2018-11-21T03:58:17.874Z,35.10
2018-11-21T03:59:17.885Z,34.80
2018-11-21T04:00:17.893Z,37.00
2018-11-21T04:01:17.898Z,37.50
2018-11-21T04:02:17.913Z,38.70
2018-11-21T04:03:17.911Z,36.80
2018-11-21T04:04:17.920Z,35.40
2018-11-21T04:05:17.935Z,37.40
2018-11-21T04:06:17.944Z,38.60
2018-11-21T04:07:17.950Z,36.40
2018-11-21T04:08:17.960Z,37.40
2018-11-21T04:09:17.961Z,36.00
2018-11-21T04:10:17.979Z,38.10
2018-11-21T04:11:17.974Z,35.40
2018-11-21T04:12:17.980Z,37.10
2018-11-21T04:13:18.338Z,36.90
2018-11-21T04:14:18.005Z,34.80
2018-11-21T04:15:18.004Z,35.50
2018-11-21T04:16:18.014Z,36.80
2018-11-21T04:17:18.017Z,39.20
2018-11-21T04:18:18.027Z,37.90
2018-11-21T04:19:18.287Z,36.20
2018-11-21T04:20:18.043Z,36.90
2018-11-21T04:21:18.051Z,39.20
2018-11-21T04:22:18.104Z,37.30
2018-11-21T04:23:18.111Z,39.50
2018-11-21T04:24:18.422Z,38.50
2018-11-21T04:26:18.089Z,37.10
2018-11-21T04:27:18.091Z,38.80
2018-11-21T04:28:18.100Z,34.60
2018-11-21T04:29:18.108Z,38.50
2018-11-21T04:30:18.117Z,37.50
2018-11-21T04:31:18.121Z,38.30
2018-11-21T04:32:18.128Z,38.40
2018-11-21T04:33:18.139Z,36.50
2018-11-21T04:34:18.145Z,36.30
2018-11-21T04:35:18.157Z,38.10
2018-11-21T04:36:18.158Z,37.90
2018-11-21T04:37:18.166Z,36.90
2018-11-21T04:38:18.176Z,38.00
2018-11-21T04:39:18.237Z,39.40
2018-11-21T04:40:18.195Z,39.90
2018-11-21T04:41:18.195Z,38.20
2018-11-21T04:42:18.206Z,39.30
2018-11-21T04:43:18.216Z,37.20
2018-11-21T04:44:18.220Z,40.20
2018-11-21T04:45:18.236Z,38.80
2018-11-21T04:46:18.235Z,38.10
2018-11-21T04:47:18.250Z,37.00
2018-11-21T04:48:18.248Z,38.20
2018-11-21T04:49:18.259Z,37.60
2018-11-21T04:50:18.266Z,40.10
2018-11-21T04:51:18.273Z,40.40
2018-11-21T04:52:18.288Z,37.80
2018-11-21T04:53:18.391Z,37.80
2018-11-21T04:54:18.351Z,37.40
2018-11-21T04:55:18.303Z,38.70
2018-11-21T04:56:18.307Z,40.60
2018-11-21T04:57:18.365Z,39.40
2018-11-21T04:58:18.354Z,36.80
2018-11-21T04:59:18.411Z,39.10
2018-11-21T05:00:18.342Z,36.90
2018-11-21T05:01:18.349Z,37.60
2018-11-21T05:02:18.361Z,38.30
2018-11-21T05:03:18.364Z,38.60
2018-11-21T05:04:18.371Z,39.70
2018-11-21T05:05:18.378Z,37.80
2018-11-21T05:06:18.443Z,38.00
2018-11-21T05:07:18.404Z,40.00
2018-11-21T05:08:18.400Z,38.00
2018-11-21T05:09:18.459Z,37.00
2018-11-21T05:10:18.415Z,37.70
2018-11-21T05:11:18.459Z,39.30
2018-11-21T05:12:18.433Z,37.80
2018-11-21T05:13:18.440Z,39.10
2018-11-21T05:14:18.447Z,37.10
2018-11-21T05:15:18.463Z,38.10
2018-11-21T05:16:18.462Z,39.50
2018-11-21T05:17:18.481Z,38.60
2018-11-21T05:18:18.483Z,38.30
2018-11-21T05:19:18.495Z,39.80
2018-11-21T05:20:18.492Z,36.40
2018-11-21T05:21:18.519Z,36.70
2018-11-21T05:22:18.508Z,37.00
2018-11-21T05:23:18.514Z,37.50
2018-11-21T05:24:18.523Z,35.10
2018-11-21T05:25:18.632Z,36.60
2018-11-21T05:26:18.544Z,39.10
2018-11-21T05:27:18.545Z,37.30
2018-11-21T05:28:18.557Z,37.90
2018-11-21T05:29:18.561Z,37.40
2018-11-21T05:30:18.573Z,36.00
2018-11-21T05:31:18.596Z,37.80
2018-11-21T05:32:18.586Z,38.50
2018-11-21T05:33:18.822Z,37.80
2018-11-21T05:34:18.602Z,38.70
2018-11-21T05:35:18.606Z,37.20
2018-11-21T05:36:18.617Z,36.60
2018-11-21T05:37:18.621Z,36.30
2018-11-21T05:38:18.645Z,37.50
2018-11-21T05:39:18.686Z,38.70
2018-11-21T05:40:18.651Z,36.70
2018-11-21T05:41:18.702Z,36.00
2018-11-21T05:42:18.662Z,38.50
2018-11-21T05:43:18.668Z,37.40
2018-11-21T05:44:18.673Z,38.50
2018-11-21T05:45:18.681Z,37.10
2018-11-21T05:46:18.691Z,36.40
2018-11-21T05:47:18.708Z,37.50
2018-11-21T05:48:18.704Z,37.30
2018-11-21T05:49:18.711Z,38.60
2018-11-21T05:50:18.722Z,39.80
2018-11-21T05:51:18.746Z,37.40
2018-11-21T05:52:18.781Z,38.80
2018-11-21T05:53:18.744Z,38.50
2018-11-21T05:54:18.761Z,35.70
2018-11-21T05:55:18.770Z,36.10
2018-11-21T05:56:18.779Z,37.00
2018-11-21T05:57:18.775Z,36.40
2018-11-21T05:58:18.793Z,38.00
2018-11-21T05:59:18.786Z,38.10
2018-11-21T06:00:18.846Z,38.60
2018-11-21T06:01:18.802Z,35.20
2018-11-21T06:02:18.821Z,39.10
2018-11-21T06:03:18.822Z,39.40
2018-11-21T06:04:18.824Z,36.80
2018-11-21T06:05:18.838Z,38.60
2018-11-21T06:06:18.840Z,36.30
2018-11-21T06:07:18.850Z,36.20
2018-11-21T06:08:18.865Z,37.70
2018-11-21T06:09:18.869Z,38.90
2018-11-21T06:10:18.874Z,35.60
2018-11-21T06:11:18.880Z,34.40
2018-11-21T06:12:18.886Z,35.90
2018-11-21T06:13:18.895Z,38.60
2018-11-21T06:14:18.905Z,38.90
2018-11-21T06:15:18.913Z,39.10
2018-11-21T06:16:18.923Z,37.40
2018-11-21T06:17:18.937Z,36.60
2018-11-21T06:18:18.933Z,37.30
2018-11-21T06:19:18.996Z,38.40
2018-11-21T06:20:18.948Z,38.60
2018-11-21T06:21:18.957Z,38.90
2018-11-21T06:22:18.966Z,38.20
2018-11-21T06:23:18.968Z,38.80
2018-11-21T06:24:18.989Z,39.50
2018-11-21T06:25:18.991Z,40.20
2018-11-21T06:26:18.996Z,38.30
2018-11-21T06:27:19.089Z,36.50
2018-11-21T06:28:19.016Z,36.90
2018-11-21T06:29:19.020Z,37.00
2018-11-21T06:30:19.025Z,39.40
2018-11-21T06:31:19.033Z,37.30
2018-11-21T06:32:19.038Z,35.10
2018-11-21T06:33:19.063Z,36.60
2018-11-21T06:34:19.064Z,39.20
2018-11-21T06:35:19.068Z,37.60
2018-11-21T06:36:19.072Z,39.00
2018-11-21T06:37:19.078Z,40.50
2018-11-21T06:38:19.096Z,37.80
2018-11-21T06:39:19.094Z,40.30
2018-11-21T06:40:19.098Z,39.30
2018-11-21T06:41:19.118Z,37.70
2018-11-21T06:42:19.126Z,38.50
2018-11-21T06:43:19.121Z,37.40
2018-11-21T06:44:19.131Z,39.00
2018-11-21T06:45:19.142Z,37.30
2018-11-21T06:46:19.150Z,37.30
2018-11-21T06:47:19.152Z,39.50
2018-11-21T06:48:19.162Z,39.80
2018-11-21T06:49:19.188Z,40.20
2018-11-21T06:50:19.175Z,38.60
2018-11-21T06:51:19.182Z,39.40
2018-11-21T06:52:22.246Z,38.20
2018-11-21T06:53:19.199Z,40.30
2018-11-21T06:54:19.208Z,38.30
2018-11-21T06:55:19.218Z,39.70
2018-11-21T06:56:19.222Z,39.80
2018-11-21T06:57:19.227Z,36.20
2018-11-21T06:58:19.249Z,39.30
2018-11-21T06:59:19.292Z,39.00
2018-11-21T07:00:19.272Z,37.30
2018-11-21T07:01:19.261Z,40.70
2018-11-21T07:02:19.269Z,38.00
2018-11-21T07:03:19.273Z,40.20
2018-11-21T07:04:19.333Z,38.60
2018-11-21T07:05:19.289Z,39.00
2018-11-21T07:06:19.297Z,39.40
2018-11-21T07:07:19.302Z,38.20
2018-11-21T07:08:19.312Z,41.40
2018-11-21T07:09:19.319Z,40.70
2018-11-21T07:10:20.171Z,40.80
2018-11-21T07:11:19.334Z,39.40
2018-11-21T07:12:19.356Z,38.70
2018-11-21T07:13:19.353Z,39.30
2018-11-21T07:14:19.353Z,39.60
2018-11-21T07:15:19.364Z,43.20
2018-11-21T07:16:19.396Z,39.10
2018-11-21T07:17:19.392Z,42.30
2018-11-21T07:18:19.414Z,40.30
2018-11-21T07:19:19.396Z,38.10
2018-11-21T07:20:19.400Z,38.00
2018-11-21T07:21:19.407Z,38.00
2018-11-21T07:22:19.422Z,37.90
2018-11-21T07:23:19.424Z,41.60
2018-11-21T07:24:19.437Z,38.70
2018-11-21T07:25:19.607Z,38.90
2018-11-21T07:26:20.007Z,40.50
2018-11-21T07:27:19.453Z,37.50
2018-11-21T07:28:19.496Z,38.10
2018-11-21T07:29:19.473Z,38.30
2018-11-21T07:30:19.475Z,39.30
2018-11-21T07:31:19.492Z,39.20
2018-11-21T07:32:19.494Z,37.60
2018-11-21T07:33:19.503Z,38.50
2018-11-21T07:34:19.568Z,39.50
2018-11-21T07:35:19.525Z,38.00
2018-11-21T07:36:19.531Z,38.50
2018-11-21T07:37:19.560Z,40.20
2018-11-21T07:38:19.536Z,38.20
2018-11-21T07:39:19.549Z,38.10
2018-11-21T07:40:19.553Z,39.50
2018-11-21T07:41:19.572Z,38.80
2018-11-21T07:42:19.578Z,38.60
2018-11-21T07:43:19.586Z,38.10
2018-11-21T07:44:19.581Z,39.20
2018-11-21T07:45:19.592Z,36.20
2018-11-21T07:46:19.597Z,38.70
2018-11-21T07:47:19.603Z,38.70
2018-11-21T07:48:20.524Z,37.10
2018-11-21T07:49:19.619Z,40.10
2018-11-21T07:50:19.632Z,40.90
2018-11-21T07:51:19.640Z,38.00
2018-11-21T07:52:19.725Z,40.00
2018-11-21T07:53:19.652Z,41.10
2018-11-21T07:54:19.658Z,38.50
2018-11-21T07:55:19.667Z,37.90
2018-11-21T07:56:19.677Z,36.50
2018-11-21T07:57:19.683Z,35.30
2018-11-21T07:58:19.688Z,38.50
2018-11-21T07:59:19.704Z,37.80
2018-11-21T08:00:19.847Z,37.10
2018-11-21T08:01:19.816Z,37.70
2018-11-21T08:02:19.744Z,37.80
2018-11-21T08:03:19.741Z,38.80
2018-11-21T08:04:19.739Z,37.50
2018-11-21T08:05:19.750Z,35.00
2018-11-21T08:06:19.747Z,37.20
2018-11-21T08:07:19.755Z,40.00
2018-11-21T08:08:19.768Z,36.40
2018-11-21T08:09:19.777Z,38.80
2018-11-21T08:10:19.779Z,39.90
2018-11-21T08:11:19.796Z,39.30
2018-11-21T08:12:19.796Z,35.90
2018-11-21T08:13:19.802Z,36.90
2018-11-21T08:14:19.836Z,37.70
2018-11-21T08:15:19.818Z,36.10
2018-11-21T08:16:19.833Z,36.60
2018-11-21T08:17:19.842Z,36.90
2018-11-21T08:18:19.842Z,36.20
2018-11-21T08:19:19.854Z,36.50
2018-11-21T08:20:19.861Z,38.10
2018-11-21T08:21:19.866Z,36.00
2018-11-21T08:22:19.874Z,35.10
2018-11-21T08:23:20.936Z,36.70
2018-11-21T08:24:20.130Z,36.00
2018-11-21T08:25:20.032Z,34.60
2018-11-21T08:26:19.905Z,35.40
2018-11-21T08:27:19.914Z,35.40
2018-11-21T08:28:20.659Z,34.70
2018-11-21T08:29:19.940Z,33.10
2018-11-21T08:30:19.960Z,33.80
2018-11-21T08:31:19.948Z,34.30
2018-11-21T08:32:19.955Z,34.80
2018-11-21T08:33:19.964Z,33.60
2018-11-21T08:34:19.970Z,35.90
2018-11-21T08:35:19.998Z,35.60
2018-11-21T08:36:20.026Z,35.40
2018-11-21T08:37:20.000Z,35.80
2018-11-21T08:38:20.002Z,33.40
2018-11-21T08:39:20.080Z,35.80
2018-11-21T08:40:20.019Z,34.10
2018-11-21T08:41:20.038Z,33.90
2018-11-21T08:42:20.039Z,31.90
2018-11-21T08:43:20.045Z,34.90
2018-11-21T08:44:20.053Z,34.80
2018-11-21T08:45:20.062Z,36.90
2018-11-21T08:46:20.072Z,32.90
2018-11-21T08:47:20.141Z,35.90
2018-11-21T08:48:20.084Z,33.60
2018-11-21T08:49:20.298Z,34.60
2018-11-21T08:50:20.138Z,34.40
2018-11-21T08:51:23.167Z,33.40
2018-11-21T08:52:20.742Z,36.40
2018-11-21T08:53:20.146Z,35.20
2018-11-21T08:54:20.135Z,35.40
2018-11-21T08:55:20.142Z,33.90
2018-11-21T08:56:20.149Z,32.50
2018-11-21T08:57:20.405Z,33.00
2018-11-21T08:58:20.364Z,34.10
2018-11-21T08:59:20.182Z,34.20
2018-11-21T09:00:20.180Z,32.60
2018-11-21T09:01:20.253Z,33.30
2018-11-21T09:02:20.199Z,32.70
2018-11-21T09:03:20.207Z,35.50
2018-11-21T09:04:20.214Z,34.80
2018-11-21T09:05:20.220Z,33.00
2018-11-21T09:06:20.229Z,34.50
2018-11-21T09:07:20.237Z,34.10
2018-11-21T09:08:20.247Z,33.70
2018-11-21T09:09:20.247Z,34.50
2018-11-21T09:10:20.270Z,34.60
2018-11-21T09:11:20.263Z,34.50
2018-11-21T09:12:20.269Z,34.50
2018-11-21T09:13:20.279Z,35.20
2018-11-21T09:14:20.522Z,35.20
2018-11-21T09:15:21.178Z,32.50
2018-11-21T09:16:20.972Z,32.20
2018-11-21T09:17:20.315Z,33.40
2018-11-21T09:18:20.318Z,34.60
2018-11-21T09:19:20.330Z,31.70
2018-11-21T09:21:20.344Z,35.50
2018-11-21T09:22:20.437Z,31.90
2018-11-21T09:23:20.360Z,33.30
2018-11-21T09:24:20.369Z,33.80
2018-11-21T09:25:20.380Z,32.60
2018-11-21T09:26:20.385Z,33.10
2018-11-21T09:27:20.401Z,34.10
2018-11-21T09:28:20.403Z,32.10
2018-11-21T09:29:20.417Z,31.40
2018-11-21T09:30:20.416Z,32.90
2018-11-21T09:31:20.427Z,32.20
2018-11-21T09:32:20.444Z,33.00
2018-11-21T09:33:20.491Z,32.30
2018-11-21T09:34:20.478Z,32.20
2018-11-21T09:35:20.473Z,31.80
2018-11-21T09:36:20.772Z,31.90
2018-11-21T09:37:20.478Z,33.00
2018-11-21T09:38:20.489Z,32.80
2018-11-21T09:39:20.749Z,31.70
2018-11-21T09:40:21.564Z,35.50
2018-11-21T09:41:20.513Z,32.30
2018-11-21T09:42:20.526Z,32.80
2018-11-21T09:43:21.222Z,31.70
2018-11-21T09:44:20.542Z,32.50
2018-11-21T09:45:20.548Z,33.60
2018-11-21T09:46:20.557Z,32.90
2018-11-21T09:47:20.565Z,31.60
2018-11-21T09:48:21.260Z,33.00
2018-11-21T09:49:21.951Z,32.70
2018-11-21T09:50:20.593Z,31.90
2018-11-21T09:51:20.604Z,33.90
2018-11-21T09:52:20.616Z,32.90
2018-11-21T09:53:20.616Z,33.00
2018-11-21T09:54:20.627Z,32.90
2018-11-21T09:55:20.639Z,32.30
2018-11-21T09:56:20.695Z,31.50
2018-11-21T09:57:20.650Z,31.20
2018-11-21T09:58:20.678Z,32.30
2018-11-21T09:59:20.668Z,33.60
2018-11-21T10:00:20.677Z,31.90
2018-11-21T10:01:20.686Z,32.50
2018-11-21T10:02:20.708Z,30.80
2018-11-21T10:03:20.705Z,31.50
2018-11-21T10:04:20.712Z,31.70
2018-11-21T10:05:21.138Z,30.30
2018-11-21T10:06:20.889Z,32.30
2018-11-21T10:07:20.738Z,32.10
2018-11-21T10:08:20.753Z,32.30
2018-11-21T10:09:20.756Z,31.60
2018-11-21T10:10:20.806Z,27.80
2018-11-21T10:11:20.774Z,33.00
2018-11-21T10:12:20.786Z,33.50
2018-11-21T10:13:20.812Z,34.00
2018-11-21T10:14:20.817Z,34.00
2018-11-21T10:15:20.819Z,31.40
2018-11-21T10:16:20.819Z,31.00
2018-11-21T10:17:20.829Z,31.90
2018-11-21T10:18:21.280Z,30.40
2018-11-21T10:19:20.844Z,32.00
2018-11-21T10:20:20.852Z,32.00
2018-11-21T10:21:20.878Z,31.20
2018-11-21T10:22:20.875Z,33.40
2018-11-21T10:23:20.891Z,32.60
2018-11-21T10:24:20.891Z,32.30
2018-11-21T10:25:20.897Z,32.70
2018-11-21T10:26:20.910Z,35.00
2018-11-21T10:27:20.917Z,35.40
2018-11-21T10:28:20.924Z,32.20
2018-11-21T10:29:20.936Z,34.00
2018-11-21T10:30:20.995Z,32.50
2018-11-21T10:31:20.969Z,32.10
2018-11-21T10:32:21.355Z,32.70
2018-11-21T10:33:21.025Z,33.00
2018-11-21T10:34:20.974Z,33.30
2018-11-21T10:35:20.999Z,33.80
2018-11-21T10:36:21.007Z,31.00
2018-11-21T10:37:21.001Z,33.70
2018-11-21T10:38:21.012Z,33.10
2018-11-21T10:39:21.021Z,34.10
2018-11-21T10:40:21.042Z,32.80
2018-11-21T10:41:21.049Z,33.00
2018-11-21T10:42:21.955Z,31.70
2018-11-21T10:43:21.060Z,33.40
2018-11-21T10:44:21.085Z,33.60
2018-11-21T10:45:21.079Z,33.50
2018-11-21T10:46:21.130Z,30.80
2018-11-21T10:47:21.099Z,32.00
2018-11-21T10:48:21.205Z,33.20
2018-11-21T10:49:21.180Z,35.90
2018-11-21T10:50:21.167Z,32.00
2018-11-21T10:51:21.132Z,32.60
2018-11-21T10:52:21.155Z,34.20
2018-11-21T10:53:21.167Z,30.90
2018-11-21T10:54:21.153Z,31.00
2018-11-21T10:55:21.970Z,33.40
2018-11-21T10:56:21.199Z,34.10
2018-11-21T10:57:21.489Z,34.10
2018-11-21T10:58:21.202Z,30.40
2018-11-21T10:59:21.222Z,31.20
2018-11-21T11:00:21.207Z,29.60
2018-11-21T11:01:21.229Z,31.00
2018-11-21T11:02:21.221Z,30.90
2018-11-21T11:03:21.245Z,29.90
2018-11-21T11:04:21.244Z,30.80
2018-11-21T11:05:21.257Z,30.00
2018-11-21T11:06:21.291Z,32.10
2018-11-21T11:07:21.274Z,31.20
2018-11-21T11:08:21.279Z,30.00
2018-11-21T11:09:21.293Z,32.50
2018-11-21T11:10:21.315Z,31.90
2018-11-21T11:11:21.323Z,29.60
2018-11-21T11:12:21.343Z,28.50
2018-11-21T11:13:21.327Z,29.90
2018-11-21T11:14:21.334Z,30.30
2018-11-21T11:15:21.340Z,26.40
2018-11-21T11:16:21.381Z,25.50
2018-11-21T11:17:21.362Z,25.60
2018-11-21T11:18:21.381Z,25.30
2018-11-21T11:19:21.390Z,25.10
2018-11-21T11:20:21.405Z,27.50
2018-11-21T11:21:21.396Z,28.40
2018-11-21T11:22:21.406Z,28.00
2018-11-21T11:23:21.408Z,27.00
2018-11-21T11:24:21.827Z,25.50
2018-11-21T11:25:21.442Z,26.30
2018-11-21T11:26:21.455Z,25.50
2018-11-21T11:27:21.482Z,23.70
2018-11-21T11:28:21.456Z,25.60
2018-11-21T11:29:21.505Z,24.00
2018-11-21T11:31:21.486Z,24.70
2018-11-21T11:32:21.494Z,25.30
2018-11-21T11:33:21.618Z,25.50
2018-11-21T11:34:21.531Z,25.40
2018-11-21T11:35:21.527Z,24.30
2018-11-21T11:36:21.591Z,25.10
2018-11-21T11:37:21.549Z,24.90
2018-11-21T11:38:21.557Z,23.30
2018-11-21T11:39:21.558Z,23.40
2018-11-21T11:40:21.568Z,24.00
2018-11-21T11:41:21.588Z,21.80
2018-11-21T11:42:21.586Z,24.40
2018-11-21T11:43:21.593Z,22.70
2018-11-21T11:44:21.608Z,23.30
2018-11-21T11:45:21.626Z,24.90
2018-11-21T11:46:21.630Z,21.90
2018-11-21T11:47:21.640Z,23.40
2018-11-21T11:48:21.639Z,24.00
2018-11-21T11:49:21.650Z,23.00
2018-11-21T11:50:21.668Z,23.90
2018-11-21T11:51:21.666Z,24.20
2018-11-21T11:52:21.673Z,21.80
2018-11-21T11:53:21.686Z,22.10
2018-11-21T11:54:21.698Z,28.00
2018-11-21T11:55:21.707Z,24.00
2018-11-21T11:56:21.722Z,23.90
2018-11-21T11:57:21.784Z,23.70
2018-11-21T11:58:21.728Z,23.00
2018-11-21T11:59:21.858Z,25.00
2018-11-21T12:00:21.746Z,25.70
2018-11-21T12:01:21.757Z,25.60
2018-11-21T12:02:21.763Z,25.00
2018-11-21T12:03:21.958Z,24.40
2018-11-21T12:04:21.781Z,28.90
2018-11-21T12:05:21.816Z,26.30
2018-11-21T12:06:22.250Z,24.00
2018-11-21T12:07:21.840Z,24.60
2018-11-21T12:08:22.291Z,23.00
2018-11-21T12:09:21.827Z,24.30
2018-11-21T12:10:21.835Z,25.80
2018-11-21T12:11:22.479Z,23.50
2018-11-21T12:12:22.090Z,26.30
2018-11-21T12:13:21.988Z,22.90
2018-11-21T12:14:21.879Z,21.20
2018-11-21T12:16:21.905Z,23.00
2018-11-21T12:17:21.905Z,22.40
2018-11-21T12:18:22.443Z,23.70
2018-11-21T12:19:21.928Z,22.50
2018-11-21T12:20:22.636Z,24.30
2018-11-21T12:21:21.943Z,22.10
2018-11-21T12:22:22.826Z,22.50
2018-11-21T12:23:21.957Z,21.60
2018-11-21T12:24:21.973Z,24.20
2018-11-21T12:25:21.992Z,24.20
2018-11-21T12:26:21.986Z,22.30
2018-11-21T12:27:21.997Z,21.20
2018-11-21T12:28:22.011Z,21.20
2018-11-21T12:29:22.558Z,21.40
2018-11-21T12:30:22.032Z,20.80
2018-11-21T12:31:22.077Z,20.80
2018-11-21T12:32:22.042Z,23.80
2018-11-21T12:33:22.063Z,21.00
2018-11-21T12:34:22.057Z,19.20
2018-11-21T12:35:22.204Z,21.40
2018-11-21T12:36:22.074Z,23.30
2018-11-21T12:37:22.084Z,21.10
2018-11-21T12:38:22.103Z,22.80
2018-11-21T12:39:22.114Z,23.10
2018-11-21T12:40:22.133Z,22.60
2018-11-21T12:41:22.150Z,22.90
2018-11-21T12:42:22.130Z,22.60
2018-11-21T12:43:22.140Z,22.50
2018-11-21T12:44:22.161Z,20.60
2018-11-21T12:45:22.164Z,21.80
2018-11-21T12:46:22.177Z,21.50
2018-11-21T12:47:22.179Z,20.50
2018-11-21T12:48:22.186Z,23.50
2018-11-21T12:50:22.291Z,21.30
2018-11-21T12:51:22.211Z,22.60
2018-11-21T12:52:22.226Z,24.50
2018-11-21T12:53:22.230Z,25.40
2018-11-21T12:54:22.280Z,23.00
2018-11-21T12:55:22.249Z,23.70
2018-11-21T12:56:22.322Z,23.70
2018-11-21T12:57:22.266Z,22.40
2018-11-21T12:58:22.277Z,22.80
2018-11-21T12:59:22.286Z,22.00
2018-11-21T13:00:22.300Z,23.90
2018-11-21T13:01:22.308Z,24.20
2018-11-21T13:02:22.323Z,22.90